createdAt,value
2022-10-23T00:04:00.211Z,72
2022-10-23T00:14:00.270Z,72
2022-10-23T00:24:00.249Z,72
2022-10-23T00:34:00.284Z,72
2022-10-23T00:44:00.192Z,72
2022-10-23T01:04:00.184Z,72.5
2022-10-23T01:14:00.332Z,72.5
2022-10-23T01:24:00.870Z,72.5
2022-10-23T01:34:00.524Z,72.5
2022-10-23T01:44:00.459Z,72.5
2022-10-23T01:54:00.316Z,72.5
2022-10-23T02:04:00.434Z,72.5
2022-10-23T02:14:00.388Z,72.5
2022-10-23T02:24:00.431Z,72.5
2022-10-23T02:34:00.499Z,72.5
2022-10-23T02:44:00.666Z,72.5
2022-10-23T02:54:00.486Z,72.5
2022-10-23T03:04:00.359Z,72.5
2022-10-23T03:14:00.439Z,72.5
2022-10-23T03:24:00.395Z,72.5
2022-10-23T03:34:00.548Z,73
2022-10-23T03:44:00.414Z,73
2022-10-23T03:54:00.463Z,73
2022-10-23T04:04:00.375Z,73
2022-10-23T04:14:00.486Z,73
2022-10-23T04:24:00.573Z,73
2022-10-23T04:34:00.491Z,73
2022-10-23T04:44:00.568Z,73
2022-10-23T04:54:00.442Z,73
2022-10-23T05:04:00.565Z,73.5
2022-10-23T05:14:00.434Z,73.5
2022-10-23T05:34:00.426Z,73.5
2022-10-23T05:44:00.591Z,73.5
2022-10-23T05:54:00.651Z,73.5
2022-10-23T06:04:00.549Z,73.5
2022-10-23T06:14:00.658Z,73.5
2022-10-23T06:24:00.542Z,73.5
2022-10-23T06:34:00.616Z,73.5
2022-10-23T06:44:00.550Z,73.5
2022-10-23T06:54:00.617Z,73.5
2022-10-23T07:04:00.735Z,73.5
2022-10-23T07:14:00.646Z,73.5
2022-10-23T07:24:00.777Z,73.5
2022-10-23T07:34:00.605Z,73.5
2022-10-23T07:44:00.735Z,73.5
2022-10-23T07:54:00.604Z,73.5
2022-10-23T08:04:00.725Z,73.5
2022-10-23T08:14:00.594Z,73.5
2022-10-23T08:24:00.712Z,73.5
2022-10-23T08:34:00.804Z,73.5
2022-10-23T08:44:00.708Z,73.5
2022-10-23T08:54:00.788Z,73.5
2022-10-23T09:04:00.718Z,73.5
2022-10-23T09:14:00.793Z,73.5
2022-10-23T09:24:00.702Z,73.5
2022-10-23T09:34:00.785Z,73.5
2022-10-23T09:44:00.906Z,73.5
2022-10-23T09:54:00.848Z,73.5
2022-10-23T10:04:00.944Z,73.5
2022-10-23T10:14:00.795Z,73.5
2022-10-23T10:24:00.951Z,73.5
2022-10-23T10:34:00.787Z,74
2022-10-23T10:44:00.856Z,74
2022-10-23T10:54:00.954Z,73
2022-10-23T11:04:00.924Z,71
2022-10-23T11:14:00.935Z,70.5
2022-10-23T11:24:00.850Z,70.5
2022-10-23T11:34:00.926Z,71
2022-10-23T11:44:00.858Z,70.5
2022-10-23T11:54:00.966Z,73
2022-10-23T12:04:01.065Z,73
2022-10-23T12:14:00.977Z,73
2022-10-23T12:24:00.886Z,72.5
2022-10-23T12:34:00.964Z,72
2022-10-23T12:44:01.097Z,72
2022-10-23T12:54:00.933Z,72
2022-10-23T13:04:01.095Z,71.5
2022-10-23T13:14:00.994Z,72
2022-10-23T13:24:01.116Z,71.5
2022-10-23T13:34:00.986Z,71.5
2022-10-23T13:44:01.102Z,71.5
2022-10-23T13:54:00.957Z,72
2022-10-23T14:04:01.074Z,72
2022-10-23T14:14:01.153Z,67.5
2022-10-23T14:24:01.078Z,68
2022-10-23T14:34:01.147Z,68.5
2022-10-23T14:44:01.048Z,69.5
2022-10-23T14:54:01.120Z,70.5
2022-10-23T15:04:01.096Z,70.5
2022-10-23T15:14:01.162Z,71
2022-10-23T15:24:01.043Z,71
2022-10-23T15:34:01.128Z,71.5
2022-10-23T15:44:01.242Z,71.5
2022-10-23T15:54:01.050Z,71
2022-10-23T16:04:01.173Z,71
2022-10-23T16:14:01.263Z,71
2022-10-23T16:24:01.177Z,71.5
2022-10-23T16:34:01.283Z,71.5
2022-10-23T16:44:01.160Z,71.5
2022-10-23T16:54:01.244Z,72
2022-10-23T17:04:01.176Z,72
2022-10-23T17:14:01.283Z,73
2022-10-23T17:34:01.223Z,74
2022-10-23T17:44:01.349Z,74
2022-10-23T17:54:01.242Z,74.5
2022-10-23T18:04:01.373Z,74.5
2022-10-23T18:14:01.235Z,74.5
2022-10-23T18:24:01.344Z,74.5
2022-10-23T18:34:01.204Z,74.5
2022-10-23T18:44:01.373Z,75
2022-10-23T18:54:01.458Z,75
2022-10-23T19:04:01.351Z,75
2022-10-23T19:14:01.413Z,75
2022-10-23T19:24:01.325Z,75
2022-10-23T19:34:01.442Z,75
2022-10-23T19:44:01.369Z,75.5
2022-10-23T19:54:01.464Z,75.5
2022-10-23T20:04:01.395Z,75.5
2022-10-23T20:14:01.492Z,75.5
2022-10-23T20:24:01.387Z,75.5
2022-10-23T20:34:01.493Z,75.5
2022-10-23T20:44:01.564Z,75.5
2022-10-23T20:54:01.454Z,75.5
2022-10-23T21:04:01.605Z,75.5
2022-10-23T21:14:01.436Z,75.5
2022-10-23T21:24:01.569Z,75.5
2022-10-23T21:34:01.546Z,75.5
2022-10-23T21:44:01.544Z,75.5
2022-10-23T21:54:01.431Z,75.5
2022-10-23T22:04:01.586Z,75.5
2022-10-23T22:14:01.631Z,75.5
2022-10-23T22:24:01.526Z,75
2022-10-23T22:34:08.424Z,75
2022-10-23T22:44:01.529Z,75
2022-10-23T22:54:01.628Z,75
2022-10-23T23:04:04.500Z,75
2022-10-23T23:14:01.665Z,75
2022-10-23T23:24:01.605Z,75
2022-10-23T23:34:01.637Z,75
2022-10-23T23:44:01.538Z,75
2022-10-23T23:54:01.599Z,75
